Time;durP1;ratioP1;P1;durP2;ratioP2;P2;SDS_P1;SDS_P2;PMS_P1;PMS_P2;Temp;Humidity;BMP_temperature;BMP_pressure;BME280_temperature;BME280_humidity;BME280_pressure;Samples;Min_cycle;Max_cycle;Signal;HPM_P1;HPM_P2
2023/03/11 04:01:06;;;;;;;0.20;0.20;;;14.20;46.80;;;;;;5566761;23;46191;-61
2023/03/11 04:03:33;;;;;;;0.30;0.20;;;14.20;46.80;;;;;;4874839;28;46282;-59
2023/03/11 04:06:28;;;;;;;0.13;0.13;;;14.20;46.80;;;;;;4932907;28;45371;-55
2023/03/11 04:08:54;;;;;;;0.20;0.20;;;14.10;46.70;;;;;;4923753;28;45031;-59
2023/03/11 04:11:19;;;;;;;0.10;0.10;;;14.10;46.70;;;;;;4922116;28;45038;-58
2023/03/11 04:13:45;;;;;;;0.30;0.20;;;14.20;46.80;;;;;;4915535;28;45315;-58
2023/03/11 04:16:21;;;;;;;0.17;0.17;;;14.20;46.80;;;;;;4912914;28;46078;-55
2023/03/11 04:18:47;;;;;;;0.43;0.17;;;14.10;46.70;;;;;;4916642;28;45001;-56
2023/03/11 04:21:12;;;;;;;0.47;0.20;;;14.10;46.70;;;;;;4899398;28;45167;-56
2023/03/11 04:23:38;;;;;;;0.17;0.10;;;14.10;46.70;;;;;;4915708;28;45620;-57
2023/03/11 04:26:03;;;;;;;0.10;0.10;;;14.10;46.70;;;;;;4914549;28;45820;-57
2023/03/11 04:28:29;;;;;;;0.20;0.20;;;14.10;46.70;;;;;;4913901;28;45271;-57
2023/03/11 04:30:54;;;;;;;0.60;0.20;;;14.10;46.80;;;;;;4913756;28;45475;-55
2023/03/11 04:33:20;;;;;;;0.10;0.10;;;14.10;46.80;;;;;;4912742;28;45336;-59
2023/03/11 04:35:45;;;;;;;0.10;0.10;;;14.10;46.80;;;;;;4915274;28;46192;-57
2023/03/11 04:38:11;;;;;;;0.30;0.20;;;14.10;46.80;;;;;;4917685;28;45174;-58
2023/03/11 04:40:37;;;;;;;0.20;0.20;;;14.00;46.80;;;;;;4912389;28;45429;-57
2023/03/11 04:43:03;;;;;;;0.20;0.20;;;14.10;46.70;;;;;;4910594;28;45479;-56
2023/03/11 04:45:28;;;;;;;0.20;0.20;;;14.10;46.70;;;;;;4894481;28;46881;-57
2023/03/11 04:47:54;;;;;;;0.17;0.17;;;14.10;46.70;;;;;;4913296;28;45426;-57
2023/03/11 04:50:19;;;;;;;0.38;0.20;;;14.10;46.70;;;;;;4913944;28;45305;-57
2023/03/11 04:52:45;;;;;;;0.27;0.10;;;14.10;46.80;;;;;;4908132;28;44974;-58
2023/03/11 04:55:12;;;;;;;0.20;0.20;;;14.00;46.80;;;;;;4915559;28;45012;-60
2023/03/11 04:57:39;;;;;;;0.10;0.10;;;14.10;46.80;;;;;;4931237;28;45623;-57
2023/03/11 05:00:10;;;;;;;0.17;0.17;;;14.10;46.80;;;;;;4912909;28;45216;-58
2023/03/11 05:02:37;;;;;;;0.20;0.20;;;14.10;46.70;;;;;;4896229;28;46219;-57
2023/03/11 05:05:03;;;;;;;0.30;0.20;;;14.10;46.70;;;;;;4928879;28;46186;-58
2023/03/11 05:07:28;;;;;;;0.20;0.20;;;14.10;46.80;;;;;;4911523;28;45196;-58
2023/03/11 05:09:54;;;;;;;0.20;0.20;;;14.10;46.80;;;;;;4916888;28;44770;-58
2023/03/11 05:12:19;;;;;;;0.20;0.20;;;14.10;46.70;;;;;;4914714;28;44642;-57
2023/03/11 05:14:45;;;;;;;0.20;0.20;;;14.10;46.70;;;;;;4915572;28;45588;-56
2023/03/11 05:17:12;;;;;;;0.20;0.10;;;14.00;46.70;;;;;;4915368;28;45091;-58
2023/03/11 05:19:38;;;;;;;0.20;0.20;;;14.00;46.70;;;;;;4916484;28;45342;-57
2023/03/11 05:22:03;;;;;;;0.20;0.20;;;14.00;46.70;;;;;;4913370;28;45791;-56
2023/03/11 05:24:29;;;;;;;0.30;0.20;;;14.10;46.70;;;;;;4914010;28;45193;-58
2023/03/11 05:26:55;;;;;;;0.20;0.20;;;14.00;46.70;;;;;;4914794;28;45040;-57
2023/03/11 05:29:20;;;;;;;0.20;0.20;;;14.00;46.70;;;;;;4915185;28;45269;-59
2023/03/11 05:31:46;;;;;;;0.27;0.20;;;14.00;46.70;;;;;;4914974;28;45093;-58
2023/03/11 05:34:12;;;;;;;0.20;0.20;;;14.00;46.70;;;;;;4916220;28;46170;-58
2023/03/11 05:36:38;;;;;;;0.17;0.17;;;14.00;46.70;;;;;;4896435;28;45225;-57
2023/03/11 05:39:03;;;;;;;0.10;0.10;;;14.00;46.70;;;;;;4916575;28;45381;-57
2023/03/11 05:41:29;;;;;;;0.20;0.20;;;14.00;46.70;;;;;;4910324;28;46005;-59
2023/03/11 05:43:55;;;;;;;0.40;0.10;;;14.00;46.80;;;;;;4907951;28;46216;-59
2023/03/11 05:46:20;;;;;;;0.13;0.13;;;14.00;46.70;;;;;;4912875;28;45164;-56
2023/03/11 05:48:46;;;;;;;0.20;0.20;;;14.00;46.70;;;;;;4915647;28;44871;-58
2023/03/11 05:51:12;;;;;;;0.20;0.20;;;14.00;46.70;;;;;;4915096;28;44763;-56
2023/03/11 05:53:38;;;;;;;0.17;0.17;;;14.00;46.70;;;;;;4908532;28;46741;-57
2023/03/11 05:56:03;;;;;;;0.20;0.20;;;14.00;46.80;;;;;;4926591;28;45229;-59
2023/03/11 05:58:30;;;;;;;0.20;0.20;;;13.90;46.70;;;;;;4911880;28;45393;-57
2023/03/11 06:00:56;;;;;;;0.20;0.20;;;14.00;46.90;;;;;;4894957;28;45369;-60
2023/03/11 06:03:21;;;;;;;0.20;0.20;;;14.00;46.80;;;;;;4913079;28;44928;-59
2023/03/11 06:05:47;;;;;;;0.10;0.10;;;14.00;46.80;;;;;;4913438;28;45631;-59
2023/03/11 06:08:13;;;;;;;0.20;0.10;;;14.00;46.80;;;;;;4913756;28;45550;-60
2023/03/11 06:10:39;;;;;;;0.20;0.20;;;14.00;46.80;;;;;;4898003;28;45555;-58
2023/03/11 06:13:04;;;;;;;0.10;0.10;;;14.00;46.80;;;;;;4918781;28;46220;-59
2023/03/11 06:15:35;;;;;;;0.10;0.10;;;14.00;46.80;;;;;;4912911;28;45418;-60
2023/03/11 06:18:00;;;;;;;0.32;0.20;;;14.00;46.70;;;;;;4917040;28;45491;-60
2023/03/11 06:20:26;;;;;;;0.13;0.10;;;14.00;46.70;;;;;;4912801;28;44907;-57
2023/03/11 06:22:52;;;;;;;0.20;0.20;;;14.00;46.70;;;;;;4915574;28;45263;-59
2023/03/11 06:25:17;;;;;;;0.27;0.20;;;14.00;46.60;;;;;;4929499;28;44912;-60
2023/03/11 06:27:43;;;;;;;0.20;0.20;;;14.00;46.60;;;;;;4913650;28;45503;-58
2023/03/11 06:30:11;;;;;;;0.52;0.20;;;14.00;46.60;;;;;;4913514;28;45264;-59
2023/03/11 06:32:36;;;;;;;0.20;0.20;;;14.00;46.70;;;;;;4912048;28;46162;-56
2023/03/11 06:35:03;;;;;;;1.05;0.40;;;14.00;46.80;;;;;;4916667;28;45201;-57
2023/03/11 06:37:28;;;;;;;0.10;0.10;;;14.00;46.70;;;;;;4915996;28;45220;-58
2023/03/11 06:39:54;;;;;;;0.20;0.20;;;14.00;46.70;;;;;;4917846;28;45496;-58
2023/03/11 06:42:22;;;;;;;0.90;0.20;;;14.00;46.70;;;;;;4918433;28;45593;-57
2023/03/11 06:44:48;;;;;;;0.30;0.20;;;13.90;46.60;;;;;;4916944;28;45634;-58
2023/03/11 06:47:14;;;;;;;0.40;0.20;;;14.00;46.70;;;;;;4917964;28;45251;-59
2023/03/11 06:49:41;;;;;;;0.20;0.20;;;14.00;46.70;;;;;;4917238;28;45563;-59
2023/03/11 06:52:07;;;;;;;0.20;0.10;;;14.00;46.70;;;;;;4918700;28;45328;-59
2023/03/11 06:54:33;;;;;;;0.20;0.20;;;13.90;46.70;;;;;;4918712;28;45397;-60
2023/03/11 06:56:58;;;;;;;0.50;0.20;;;13.90;46.70;;;;;;4916989;28;45287;-57
2023/03/11 06:59:24;;;;;;;1.20;0.13;;;14.00;46.70;;;;;;4918826;28;44919;-57
2023/03/11 07:01:49;;;;;;;0.27;0.20;;;14.00;46.60;;;;;;4913477;28;46450;-59
2023/03/11 07:04:15;;;;;;;0.70;0.20;;;14.00;46.60;;;;;;4917742;28;45571;-57
2023/03/11 07:06:41;;;;;;;0.20;0.20;;;14.00;46.60;;;;;;4902659;28;45389;-56
2023/03/11 07:09:07;;;;;;;1.30;0.20;;;14.00;46.60;;;;;;4934541;28;44981;-58
2023/03/11 07:11:32;;;;;;;0.80;0.27;;;14.00;46.50;;;;;;4915959;28;45869;-59
2023/03/11 07:13:58;;;;;;;0.80;0.30;;;14.00;46.60;;;;;;4913976;28;45518;-56
2023/03/11 07:16:25;;;;;;;1.90;0.30;;;14.00;46.60;;;;;;4911841;28;46101;-57
2023/03/11 07:18:51;;;;;;;0.47;0.20;;;14.10;46.60;;;;;;4910279;28;45703;-58
2023/03/11 07:21:18;;;;;;;0.68;0.20;;;14.10;46.60;;;;;;4914678;28;46276;-60
2023/03/11 07:23:43;;;;;;;2.10;0.38;;;14.10;46.60;;;;;;4891456;28;45184;-59
2023/03/11 07:26:10;;;;;;;2.45;0.20;;;14.00;46.60;;;;;;4914981;28;45035;-58
2023/03/11 07:28:36;;;;;;;1.80;0.40;;;14.00;46.70;;;;;;4929744;28;45648;-59
2023/03/11 07:31:12;;;;;;;0.73;0.20;;;14.10;46.70;;;;;;4912648;28;46051;-58
2023/03/11 07:33:38;;;;;;;0.40;0.10;;;14.10;46.70;;;;;;4911563;28;45460;-58
2023/03/11 07:36:08;;;;;;;1.03;0.23;;;14.10;46.70;;;;;;4912895;28;45247;-58
2023/03/11 07:38:34;;;;;;;1.60;0.20;;;14.10;46.70;;;;;;4913700;28;44916;-60
2023/03/11 07:41:00;;;;;;;1.15;0.10;;;14.10;46.60;;;;;;4911844;28;46892;-60
2023/03/11 07:43:25;;;;;;;0.50;0.20;;;14.10;46.60;;;;;;4891475;28;45050;-60
2023/03/11 07:45:51;;;;;;;0.40;0.20;;;14.10;46.60;;;;;;4926629;28;46092;-59
2023/03/11 07:48:16;;;;;;;0.93;0.27;;;14.10;46.60;;;;;;4916295;28;44889;-59
2023/03/11 07:50:42;;;;;;;2.03;0.30;;;14.10;46.60;;;;;;4914258;28;46056;-58
2023/03/11 07:53:08;;;;;;;1.30;0.20;;;14.10;46.50;;;;;;4908061;28;45276;-60
2023/03/11 07:55:33;;;;;;;0.37;0.20;;;14.10;46.50;;;;;;4912142;28;45627;-57
2023/03/11 07:57:59;;;;;;;1.30;0.20;;;14.10;46.60;;;;;;4913079;28;45484;-59
2023/03/11 08:00:24;;;;;;;0.60;0.20;;;14.10;46.50;;;;;;4905869;28;46822;-59
2023/03/11 08:02:50;;;;;;;2.53;0.23;;;14.10;46.60;;;;;;4910771;28;46829;-59
2023/03/11 08:05:19;;;;;;;0.50;0.20;;;14.10;46.60;;;;;;4894544;28;45909;-59
2023/03/11 08:07:45;;;;;;;2.25;0.30;;;14.10;46.50;;;;;;4917340;28;45586;-60
2023/03/11 08:10:11;;;;;;;1.10;0.20;;;14.10;46.50;;;;;;4914564;28;46047;-58
2023/03/11 08:12:36;;;;;;;1.42;0.30;;;14.20;46.60;;;;;;4910939;28;45525;-58
2023/03/11 08:15:02;;;;;;;1.20;0.30;;;14.20;46.50;;;;;;4912001;28;45723;-59
2023/03/11 08:17:27;;;;;;;0.60;0.30;;;14.20;46.40;;;;;;4911245;28;44994;-60
2023/03/11 08:19:53;;;;;;;0.85;0.20;;;14.20;47.10;;;;;;4919171;28;45350;-57
2023/03/11 08:22:19;;;;;;;0.73;0.30;;;14.20;46.50;;;;;;4931227;28;45264;-57
2023/03/11 08:24:44;;;;;;;2.33;0.20;;;14.20;46.40;;;;;;4912945;28;45403;-59
2023/03/11 08:27:11;;;;;;;1.15;0.40;;;14.20;46.40;;;;;;4913562;28;45313;-58
2023/03/11 08:29:36;;;;;;;0.35;0.20;;;14.20;46.40;;;;;;4914412;28;46062;-58
2023/03/11 08:32:02;;;;;;;0.80;0.20;;;14.20;46.40;;;;;;4914550;28;45255;-58
2023/03/11 08:34:28;;;;;;;0.50;0.30;;;14.20;46.40;;;;;;4909404;28;45282;-59
2023/03/11 08:36:54;;;;;;;2.70;0.37;;;14.20;46.30;;;;;;4913601;28;45704;-54
2023/03/11 08:39:19;;;;;;;0.43;0.13;;;14.20;46.30;;;;;;4915492;28;45375;-58
2023/03/11 08:41:45;;;;;;;0.80;0.20;;;14.20;46.30;;;;;;4906826;28;45076;-61
2023/03/11 08:44:10;;;;;;;1.05;0.20;;;14.20;46.30;;;;;;4913136;28;45159;-57
2023/03/11 08:46:38;;;;;;;0.40;0.20;;;14.20;46.30;;;;;;4912700;28;45443;-59
2023/03/11 08:49:03;;;;;;;0.13;0.13;;;14.20;46.30;;;;;;4916434;28;45365;-59
2023/03/11 08:51:30;;;;;;;0.52;0.20;;;14.20;46.30;;;;;;4913910;28;45325;-60
2023/03/11 08:53:55;;;;;;;2.22;0.30;;;14.30;46.30;;;;;;4897203;28;45313;-56
2023/03/11 08:56:21;;;;;;;1.20;0.30;;;14.30;46.30;;;;;;4914118;28;45289;-59
2023/03/11 08:58:47;;;;;;;1.93;0.30;;;14.30;46.20;;;;;;4911645;28;46099;-58
2023/03/11 09:01:13;;;;;;;0.88;0.20;;;14.30;46.20;;;;;;4913833;28;45659;-60
2023/03/11 09:03:38;;;;;;;1.17;0.30;;;14.30;46.30;;;;;;4928546;28;45850;-59
2023/03/11 09:06:06;;;;;;;1.15;0.20;;;14.30;46.20;;;;;;4911643;28;45568;-59
2023/03/11 09:08:32;;;;;;;0.50;0.20;;;14.30;46.20;;;;;;4914537;28;46173;-57
2023/03/11 09:10:57;;;;;;;1.03;0.23;;;14.30;46.20;;;;;;4914087;28;44748;-57
2023/03/11 09:13:23;;;;;;;0.30;0.15;;;14.30;46.20;;;;;;4915701;28;45566;-57
2023/03/11 09:15:49;;;;;;;0.47;0.20;;;14.30;46.20;;;;;;4911852;28;45264;-59
2023/03/11 09:18:15;;;;;;;0.75;0.40;;;14.30;46.20;;;;;;4912596;28;45592;-60
2023/03/11 09:20:41;;;;;;;0.40;0.27;;;14.30;46.10;;;;;;4913091;28;45364;-58
2023/03/11 09:23:07;;;;;;;0.70;0.20;;;14.30;46.10;;;;;;4885340;28;45434;-60
2023/03/11 09:25:32;;;;;;;0.40;0.20;;;14.30;46.70;;;;;;4906503;28;46107;-60
2023/03/11 09:27:58;;;;;;;1.30;0.30;;;14.30;46.10;;;;;;4914433;28;45872;-60
2023/03/11 09:30:24;;;;;;;1.50;0.30;;;14.30;46.10;;;;;;4914631;28;46148;-56
2023/03/11 09:32:49;;;;;;;0.37;0.20;;;14.30;46.10;;;;;;4914657;28;45358;-58
2023/03/11 09:35:15;;;;;;;0.43;0.30;;;14.30;46.10;;;;;;4911621;28;45469;-59
2023/03/11 09:37:40;;;;;;;0.22;0.10;;;14.30;46.10;;;;;;4909993;28;45879;-58
2023/03/11 09:40:07;;;;;;;0.70;0.40;;;14.30;46.10;;;;;;4911829;28;44708;-58
2023/03/11 09:42:42;;;;;;;0.35;0.20;;;14.30;46.10;;;;;;4911798;28;45314;-58
2023/03/11 09:45:24;;;;;;;0.40;0.20;;;14.30;46.10;;;;;;4906600;28;45296;-60
2023/03/11 09:48:00;;;;;;;0.95;0.20;;;14.30;46.10;;;;;;4893709;28;46633;-59
2023/03/11 09:50:31;;;;;;;1.30;0.20;;;14.30;46.10;;;;;;4893692;28;45621;-57
2023/03/11 09:53:33;;;;;;;0.60;0.20;;;14.30;46.10;;;;;;4914800;28;45274;-58
2023/03/11 09:55:59;;;;;;;0.70;0.30;;;14.30;46.10;;;;;;4909819;28;45259;-57
2023/03/11 09:58:43;;;;;;;1.40;0.20;;;14.30;46.10;;;;;;4893356;28;46139;-60
2023/03/11 10:01:14;;;;;;;1.08;0.30;;;14.30;46.10;;;;;;4889799;28;45201;-59
2023/03/11 10:03:40;;;;;;;0.20;0.20;;;14.30;46.10;;;;;;4906846;28;45767;-59
2023/03/11 10:06:16;;;;;;;1.10;0.25;;;14.30;46.10;;;;;;4910708;28;45545;-60
2023/03/11 10:09:11;;;;;;;0.20;0.20;;;14.30;46.10;;;;;;4909383;28;46231;-57
2023/03/11 10:11:44;;;;;;;0.38;0.30;;;14.30;46.10;;;;;;4905914;28;45523;-58
2023/03/11 10:14:33;;;;;;;0.40;0.20;;;14.30;46.10;;;;;;4929430;28;45434;-60
2023/03/11 10:17:04;;;;;;;0.80;0.20;;;14.30;46.10;;;;;;4905330;28;45675;-60
2023/03/11 10:19:47;;;;;;;1.40;0.22;;;14.30;46.10;;;;;;4913218;28;45270;-60
2023/03/11 10:22:18;;;;;;;0.22;0.20;;;14.30;46.10;;;;;;4906269;28;45307;-61
2023/03/11 10:24:47;;;;;;;0.68;0.20;;;14.30;46.10;;;;;;4913772;28;44856;-58
2023/03/11 10:27:34;;;;;;;0.47;0.20;;;14.30;46.10;;;;;;4907233;28;45941;-59
2023/03/11 10:30:24;;;;;;;1.10;0.20;;;14.30;46.10;;;;;;4911305;28;45990;-60
2023/03/11 10:32:54;;;;;;;0.27;0.17;;;14.30;46.10;;;;;;4898634;28;44990;-61
2023/03/11 10:35:21;;;;;;;0.50;0.30;;;14.30;46.10;;;;;;4909334;28;45381;-61
2023/03/11 10:37:54;;;;;;;0.38;0.20;;;14.30;46.10;;;;;;4894453;28;45584;-58
2023/03/11 10:40:22;;;;;;;0.28;0.20;;;14.30;46.10;;;;;;4914278;28;45038;-61
2023/03/11 10:42:47;;;;;;;0.30;0.30;;;14.30;46.10;;;;;;4914555;28;45667;-58
2023/03/11 10:45:13;;;;;;;1.40;0.30;;;14.30;46.10;;;;;;4882423;28;46119;-57
2023/03/11 10:47:39;;;;;;;0.20;0.20;;;14.40;46.10;;;;;;4892535;28;44781;-59
2023/03/11 10:50:05;;;;;;;0.73;0.20;;;14.30;46.10;;;;;;4913952;28;46214;-60
2023/03/11 10:52:30;;;;;;;0.40;0.10;;;14.30;46.30;;;;;;4913661;28;45565;-58
2023/03/11 10:55:01;;;;;;;0.20;0.20;;;14.30;46.00;;;;;;4914154;28;44945;-58
2023/03/11 10:57:35;;;;;;;1.00;0.25;;;14.40;46.10;;;;;;4908935;28;45241;-61
2023/03/11 11:00:08;;;;;;;1.30;0.40;;;14.30;46.00;;;;;;4917381;28;45312;-59
2023/03/11 11:02:39;;;;;;;0.20;0.20;;;14.40;46.10;;;;;;4909658;28;45253;-57
2023/03/11 11:05:26;;;;;;;0.30;0.20;;;14.40;46.10;;;;;;4895385;28;45297;-60
2023/03/11 11:08:18;;;;;;;0.40;0.13;;;14.40;46.00;;;;;;4915018;28;45040;-58
2023/03/11 11:10:57;;;;;;;0.40;0.20;;;14.40;46.10;;;;;;4923148;28;45182;-57
2023/03/11 11:13:24;;;;;;;0.85;0.20;;;14.40;46.00;;;;;;4916172;28;44681;-59
2023/03/11 11:16:13;;;;;;;0.25;0.20;;;14.40;46.00;;;;;;4906816;28;45948;-59
2023/03/11 11:18:43;;;;;;;0.30;0.30;;;14.40;46.00;;;;;;4911281;28;45273;-58
2023/03/11 11:21:12;;;;;;;0.55;0.30;;;14.40;46.10;;;;;;4895938;28;45868;-58
2023/03/11 11:23:48;;;;;;;0.60;0.28;;;14.40;46.00;;;;;;4896338;28;46482;-59
2023/03/11 11:26:24;;;;;;;1.10;0.50;;;14.40;46.00;;;;;;4925223;28;45467;-59
2023/03/11 11:29:08;;;;;;;0.20;0.20;;;14.40;46.00;;;;;;4912856;28;44736;-59
2023/03/11 11:31:34;;;;;;;1.10;0.30;;;14.40;46.00;;;;;;4906221;28;45221;-59
2023/03/11 11:33:59;;;;;;;0.30;0.27;;;14.40;46.00;;;;;;4908191;28;45363;-59
2023/03/11 11:36:30;;;;;;;0.30;0.27;;;14.40;46.00;;;;;;4907711;28;45498;-58
2023/03/11 11:38:56;;;;;;;0.35;0.30;;;14.40;46.00;;;;;;4897936;28;45224;-59
2023/03/11 11:41:23;;;;;;;0.70;0.30;;;14.40;46.00;;;;;;4893047;28;46998;-59
2023/03/11 11:43:53;;;;;;;1.77;0.20;;;14.40;46.10;;;;;;4908233;28;44619;-58
2023/03/11 11:46:30;;;;;;;0.27;0.17;;;14.40;46.10;;;;;;4906468;28;44914;-59
2023/03/11 11:49:21;;;;;;;0.50;0.20;;;14.40;46.10;;;;;;4911039;28;45279;-57
2023/03/11 11:52:14;;;;;;;0.20;0.15;;;14.40;46.00;;;;;;4922408;28;46447;-58
2023/03/11 11:54:53;;;;;;;0.70;0.20;;;14.40;46.00;;;;;;4913956;28;44640;-59
2023/03/11 11:57:20;;;;;;;0.70;0.20;;;14.40;46.00;;;;;;4907476;28;45928;-58
2023/03/11 11:59:45;;;;;;;0.52;0.20;;;14.40;46.00;;;;;;4899200;28;45627;-58
2023/03/11 12:02:42;;;;;;;0.30;0.20;;;14.40;46.00;;;;;;4906718;28;46327;-58
2023/03/11 12:05:33;;;;;;;0.22;0.20;;;14.40;46.00;;;;;;4926465;28;45254;-57
2023/03/11 12:08:08;;;;;;;0.50;0.30;;;14.40;46.00;;;;;;4913977;28;45772;-59
2023/03/11 12:10:53;;;;;;;0.90;0.30;;;14.40;46.00;;;;;;4908366;28;45157;-57
2023/03/11 12:13:47;;;;;;;0.65;0.28;;;14.40;46.00;;;;;;4914868;28;46149;-57
2023/03/11 12:16:28;;;;;;;0.98;0.20;;;14.40;46.00;;;;;;4911106;28;45466;-56
2023/03/11 12:19:00;;;;;;;0.40;0.30;;;14.40;46.00;;;;;;4912132;28;45264;-56
2023/03/11 12:21:26;;;;;;;0.70;0.30;;;14.40;46.00;;;;;;4906707;28;45675;-58
2023/03/11 12:24:12;;;;;;;1.10;0.20;;;14.40;46.00;;;;;;4912033;28;45940;-56
2023/03/11 12:26:39;;;;;;;0.50;0.20;;;14.40;46.00;;;;;;4910767;28;45616;-58
2023/03/11 12:29:22;;;;;;;0.30;0.20;;;14.40;46.00;;;;;;4913272;28;45661;-58
2023/03/11 12:31:48;;;;;;;0.43;0.20;;;14.40;46.00;;;;;;4902769;28;45966;-59
2023/03/11 12:34:16;;;;;;;0.52;0.20;;;14.40;46.00;;;;;;4888160;28;45332;-58
2023/03/11 12:36:43;;;;;;;0.43;0.30;;;14.40;46.00;;;;;;4886987;28;45258;-60
2023/03/11 12:39:28;;;;;;;0.30;0.20;;;14.40;46.00;;;;;;4912918;28;45971;-59
2023/03/11 12:42:21;;;;;;;0.93;0.20;;;14.40;46.00;;;;;;4922868;28;45152;-58
2023/03/11 12:44:47;;;;;;;0.40;0.20;;;14.50;46.00;;;;;;4912560;28;46023;-60
2023/03/11 12:47:13;;;;;;;0.30;0.20;;;14.40;45.90;;;;;;4887866;28;45836;-58
2023/03/11 12:49:46;;;;;;;0.40;0.20;;;14.40;45.90;;;;;;4913731;28;45425;-55
2023/03/11 12:52:14;;;;;;;0.40;0.30;;;14.40;46.50;;;;;;4907668;28;45371;-57
2023/03/11 12:54:40;;;;;;;0.35;0.30;;;14.50;46.00;;;;;;4914104;28;46274;-56
2023/03/11 12:57:15;;;;;;;0.25;0.25;;;14.40;45.90;;;;;;4909789;28;45766;-58
2023/03/11 13:00:16;;;;;;;0.40;0.30;;;14.40;45.90;;;;;;4913890;28;45196;-58
2023/03/11 13:03:10;;;;;;;0.40;0.20;;;14.40;45.90;;;;;;4907416;28;45375;-60
2023/03/11 13:06:03;;;;;;;1.08;0.30;;;14.40;46.00;;;;;;4906771;28;46277;-58
2023/03/11 13:08:37;;;;;;;0.30;0.20;;;14.40;46.00;;;;;;4911021;28;45799;-58
2023/03/11 13:11:23;;;;;;;0.32;0.28;;;14.40;46.00;;;;;;4922784;28;45833;-58
2023/03/11 13:13:48;;;;;;;0.60;0.30;;;14.40;46.00;;;;;;4910341;28;45186;-59
2023/03/11 13:16:14;;;;;;;0.63;0.20;;;14.40;46.00;;;;;;4920402;28;47333;-60
2023/03/11 13:18:40;;;;;;;0.30;0.20;;;14.40;46.00;;;;;;4913653;28;44684;-58
2023/03/11 13:21:31;;;;;;;0.30;0.20;;;14.40;46.00;;;;;;4890317;28;46038;-57
2023/03/11 13:24:24;;;;;;;0.30;0.30;;;14.40;46.00;;;;;;4925319;28;45832;-59
2023/03/11 13:26:59;;;;;;;1.00;0.30;;;14.40;46.00;;;;;;4905946;28;46425;-58
2023/03/11 13:29:51;;;;;;;0.70;0.20;;;14.40;46.00;;;;;;4913200;28;45251;-58
2023/03/11 13:32:25;;;;;;;0.40;0.20;;;14.40;46.00;;;;;;4904276;28;45576;-59
2023/03/11 13:35:27;;;;;;;0.70;0.28;;;14.40;46.00;;;;;;4898263;28;45204;-58
2023/03/11 13:38:20;;;;;;;0.90;0.30;;;14.40;46.00;;;;;;4909214;28;45379;-59
2023/03/11 13:40:45;;;;;;;0.30;0.20;;;14.40;46.00;;;;;;4906563;28;45183;-59
2023/03/11 13:43:14;;;;;;;2.07;0.20;;;14.40;46.00;;;;;;4908879;28;45300;-57
2023/03/11 13:45:40;;;;;;;0.52;0.20;;;14.40;46.10;;;;;;4900745;28;45588;-59
2023/03/11 13:48:31;;;;;;;0.20;0.20;;;14.40;46.20;;;;;;4892083;28;46333;-59
2023/03/11 13:51:07;;;;;;;1.30;0.28;;;14.40;46.20;;;;;;4905622;28;45334;-56
2023/03/11 13:53:36;;;;;;;1.13;0.20;;;14.50;46.20;;;;;;4926877;28;45337;-56
2023/03/11 13:56:01;;;;;;;3.03;0.20;;;14.50;46.20;;;;;;4904215;28;45364;-59
2023/03/11 13:58:27;;;;;;;1.03;0.30;;;14.50;46.30;;;;;;4906496;28;45768;-58
2023/03/11 14:01:00;;;;;;;1.30;0.40;;;14.50;46.30;;;;;;4900487;28;45617;-58
2023/03/11 14:03:28;;;;;;;1.20;0.30;;;14.50;46.30;;;;;;4924956;28;45016;-58
2023/03/11 14:06:16;;;;;;;3.03;0.40;;;14.60;46.30;;;;;;4905701;28;45275;-57
2023/03/11 14:08:42;;;;;;;1.08;0.30;;;14.50;46.20;;;;;;4896773;28;47248;-59
2023/03/11 14:11:09;;;;;;;3.50;0.30;;;14.50;46.20;;;;;;4906403;28;44661;-59
2023/03/11 14:13:52;;;;;;;5.07;0.50;;;14.50;46.20;;;;;;4913310;28;45485;-58
2023/03/11 14:16:32;;;;;;;1.50;0.22;;;14.50;46.20;;;;;;4905203;28;45303;-57
2023/03/11 14:19:14;;;;;;;3.08;0.30;;;14.50;46.30;;;;;;4910175;28;45738;-58
2023/03/11 14:21:43;;;;;;;2.45;0.32;;;14.50;46.40;;;;;;4904270;28;45224;-59
2023/03/11 14:24:20;;;;;;;2.15;0.30;;;14.50;46.50;;;;;;4911425;28;45219;-60
2023/03/11 14:26:48;;;;;;;3.35;0.20;;;14.50;46.40;;;;;;4918549;28;46029;-58
2023/03/11 14:29:18;;;;;;;5.32;0.40;;;14.50;47.10;;;;;;4907622;28;45590;-61
2023/03/11 14:31:44;;;;;;;1.70;0.22;;;14.50;46.50;;;;;;4897216;28;46097;-59
2023/03/11 14:34:09;;;;;;;1.48;0.30;;;14.50;46.50;;;;;;4907926;28;45274;-58
2023/03/11 14:36:53;;;;;;;3.33;0.20;;;14.50;46.50;;;;;;4908278;28;45582;-58
2023/03/11 14:39:35;;;;;;;2.30;0.20;;;14.40;46.50;;;;;;4925139;28;46553;-60
2023/03/11 14:42:33;;;;;;;2.40;0.30;;;14.40;47.10;;;;;;4902022;28;46252;-58
2023/03/11 14:45:03;;;;;;;2.50;0.30;;;14.50;46.50;;;;;;4907424;28;45372;-60
2023/03/11 14:47:38;;;;;;;2.72;0.30;;;14.50;46.50;;;;;;4887303;28;45214;-58
2023/03/11 14:50:05;;;;;;;1.00;0.30;;;14.50;46.50;;;;;;4922352;28;45002;-60
2023/03/11 14:52:47;;;;;;;1.93;0.43;;;14.50;46.50;;;;;;4890622;28;45148;-59
2023/03/11 14:55:19;;;;;;;2.13;0.30;;;14.50;46.40;;;;;;4920916;28;45459;-61
2023/03/11 14:58:13;;;;;;;0.68;0.20;;;14.50;46.40;;;;;;4877721;28;44841;-59
2023/03/11 15:00:48;;;;;;;2.53;0.43;;;14.50;46.40;;;;;;4883631;28;45377;-60
2023/03/11 15:03:19;;;;;;;0.43;0.20;;;14.50;46.40;;;;;;4892472;28;45322;-60
2023/03/11 15:05:53;;;;;;;1.02;0.40;;;14.50;46.40;;;;;;4922278;28;45797;-60
2023/03/11 15:08:20;;;;;;;3.60;0.40;;;14.50;46.40;;;;;;4895116;28;45808;-60
2023/03/11 15:11:01;;;;;;;1.50;0.35;;;14.50;46.40;;;;;;4907058;28;45512;-60
2023/03/11 15:13:26;;;;;;;5.95;0.40;;;14.40;46.40;;;;;;4913971;28;45178;-57
2023/03/11 15:15:56;;;;;;;1.10;0.20;;;14.50;46.40;;;;;;4901018;28;45525;-55
2023/03/11 15:18:24;;;;;;;0.85;0.40;;;14.50;46.40;;;;;;4906904;28;44730;-61
2023/03/11 15:21:20;;;;;;;2.30;0.32;;;14.50;46.40;;;;;;4903899;28;46571;-57
2023/03/11 15:23:47;;;;;;;0.40;0.20;;;14.50;46.40;;;;;;4911262;28;44742;-58
2023/03/11 15:26:18;;;;;;;0.60;0.30;;;14.50;46.40;;;;;;4888430;28;45214;-58
2023/03/11 15:28:43;;;;;;;1.58;0.30;;;14.50;46.40;;;;;;4909692;28;45448;-58
2023/03/11 15:31:26;;;;;;;2.00;0.30;;;14.50;46.40;;;;;;4903296;28;46269;-57
2023/03/11 15:33:51;;;;;;;2.47;0.45;;;14.40;46.40;;;;;;4912495;28;45356;-59
2023/03/11 15:36:41;;;;;;;1.57;0.40;;;14.40;46.40;;;;;;4906576;28;45834;-59
2023/03/11 15:39:17;;;;;;;1.20;0.30;;;14.50;46.40;;;;;;4911364;28;45234;-57
2023/03/11 15:41:44;;;;;;;0.75;0.20;;;14.50;46.40;;;;;;4905955;28;46128;-56
2023/03/11 15:44:40;;;;;;;1.45;0.30;;;14.40;46.30;;;;;;4913081;28;45504;-55
2023/03/11 15:47:16;;;;;;;0.60;0.20;;;14.40;46.40;;;;;;4882269;28;45426;-55
2023/03/11 15:49:42;;;;;;;0.60;0.30;;;14.40;46.40;;;;;;4907192;28;45979;-56
2023/03/11 15:52:08;;;;;;;0.47;0.30;;;14.40;46.40;;;;;;4921149;28;45766;-56
2023/03/11 15:54:33;;;;;;;0.80;0.40;;;14.50;46.40;;;;;;4910880;28;46073;-55
2023/03/11 15:57:02;;;;;;;1.90;0.20;;;14.50;46.40;;;;;;4905534;28;45660;-56
2023/03/11 15:59:28;;;;;;;1.20;0.30;;;14.40;46.40;;;;;;4926768;28;45264;-55
2023/03/11 16:01:54;;;;;;;1.63;0.30;;;14.40;46.40;;;;;;4901129;28;45620;-59
2023/03/11 16:04:19;;;;;;;0.35;0.22;;;14.40;46.40;;;;;;4896039;28;45519;-58
2023/03/11 16:06:45;;;;;;;1.10;0.30;;;14.40;46.40;;;;;;4908104;28;44740;-58
2023/03/11 16:09:11;;;;;;;0.30;0.30;;;14.40;46.40;;;;;;4909010;28;46256;-59
2023/03/11 16:11:37;;;;;;;0.73;0.30;;;14.40;46.40;;;;;;4920524;28;46443;-58
2023/03/11 16:14:03;;;;;;;1.80;0.40;;;14.40;46.40;;;;;;4909270;28;45261;-59
2023/03/11 16:16:28;;;;;;;1.07;0.40;;;14.40;46.30;;;;;;4901598;28;45492;-60
2023/03/11 16:18:54;;;;;;;0.77;0.30;;;14.40;46.40;;;;;;4891202;28;45529;-59
2023/03/11 16:21:21;;;;;;;0.90;0.30;;;14.40;46.30;;;;;;4907037;28;47098;-59
2023/03/11 16:23:47;;;;;;;0.33;0.20;;;14.40;46.30;;;;;;4914013;28;45620;-56
2023/03/11 16:26:13;;;;;;;0.57;0.25;;;14.40;46.40;;;;;;4906447;28;45654;-57
2023/03/11 16:28:38;;;;;;;0.30;0.30;;;14.40;46.40;;;;;;4880069;28;45698;-57
2023/03/11 16:31:04;;;;;;;1.85;0.30;;;14.40;46.40;;;;;;4903973;28;45913;-57
2023/03/11 16:33:30;;;;;;;1.00;0.37;;;14.40;46.40;;;;;;4913114;28;45454;-59
2023/03/11 16:35:55;;;;;;;1.55;0.30;;;14.40;46.40;;;;;;4907930;28;45153;-58
2023/03/11 16:38:22;;;;;;;0.60;0.30;;;14.40;46.40;;;;;;4911298;28;45220;-59
2023/03/11 16:40:58;;;;;;;0.20;0.20;;;14.40;46.40;;;;;;4924323;28;46070;-58
2023/03/11 16:43:23;;;;;;;1.60;0.30;;;14.40;46.40;;;;;;4913445;28;45495;-60
2023/03/11 16:45:49;;;;;;;0.37;0.30;;;14.40;46.40;;;;;;4905207;28;45501;-58
2023/03/11 16:48:15;;;;;;;0.80;0.23;;;14.40;46.40;;;;;;4924337;28;45614;-58
2023/03/11 16:50:40;;;;;;;1.50;0.40;;;14.40;46.40;;;;;;4907843;28;47146;-59
2023/03/11 16:53:06;;;;;;;0.50;0.30;;;14.40;46.40;;;;;;4909749;28;45322;-58
2023/03/11 16:55:31;;;;;;;0.57;0.33;;;14.40;46.40;;;;;;4922395;28;45366;-59
2023/03/11 16:57:57;;;;;;;1.37;0.37;;;14.40;46.40;;;;;;4907259;28;45211;-56
2023/03/11 17:00:23;;;;;;;0.50;0.28;;;14.40;46.40;;;;;;4904014;28;45506;-60
2023/03/11 17:02:49;;;;;;;0.60;0.30;;;14.40;46.40;;;;;;4906822;28;45602;-60
2023/03/11 17:05:15;;;;;;;3.10;0.45;;;14.40;46.40;;;;;;4908672;28;46165;-58